createdAt,value
2019-03-12T00:00:38.800Z,3.80
2019-03-12T00:03:07.347Z,3.80
2019-03-12T00:05:35.915Z,3.80
2019-03-12T00:08:04.511Z,3.80
2019-03-12T00:10:33.028Z,3.80
2019-03-12T00:13:01.456Z,3.80
2019-03-12T00:15:29.905Z,3.90
2019-03-12T00:17:58.469Z,3.90
2019-03-12T00:20:27.057Z,3.90
2019-03-12T00:22:55.601Z,3.90
2019-03-12T00:25:23.984Z,3.90
2019-03-12T00:27:52.588Z,3.90
2019-03-12T00:30:21.189Z,3.90
2019-03-12T00:32:49.628Z,3.90
2019-03-12T00:35:18.199Z,3.90
2019-03-12T00:37:46.636Z,3.90
2019-03-12T00:40:17.938Z,3.90
2019-03-12T00:42:48.316Z,4.00
2019-03-12T00:45:16.878Z,4.00
2019-03-12T00:47:45.305Z,4.00
2019-03-12T00:50:13.815Z,4.00
2019-03-12T00:52:42.214Z,3.90
2019-03-12T00:55:10.692Z,3.90
2019-03-12T00:57:39.152Z,3.80
2019-03-12T01:00:11.113Z,3.70
2019-03-12T01:02:39.579Z,3.60
2019-03-12T01:05:07.996Z,3.60
2019-03-12T01:07:36.667Z,3.50
2019-03-12T01:10:07.494Z,3.50
2019-03-12T01:12:36.038Z,3.50
2019-03-12T01:15:06.219Z,3.50
2019-03-12T01:17:34.042Z,3.50
2019-03-12T01:20:02.500Z,3.50
2019-03-12T01:22:31.152Z,3.40
2019-03-12T01:24:59.568Z,3.40
2019-03-12T01:27:30.601Z,3.40
2019-03-12T01:29:59.093Z,3.40
2019-03-12T01:32:27.696Z,3.50
2019-03-12T01:34:56.134Z,3.50
2019-03-12T01:37:24.529Z,3.50
2019-03-12T01:39:52.970Z,3.50
2019-03-12T01:42:21.337Z,3.60
2019-03-12T01:44:49.830Z,3.70
2019-03-12T01:47:18.216Z,3.70
2019-03-12T01:49:46.676Z,3.80
2019-03-12T01:52:15.136Z,3.80
2019-03-12T01:54:43.619Z,3.90
2019-03-12T01:57:12.129Z,4.00
2019-03-12T01:59:40.539Z,4.00
2019-03-12T02:02:09.051Z,4.00
2019-03-12T02:04:37.605Z,4.00
2019-03-12T02:07:05.942Z,3.90
2019-03-12T02:09:34.454Z,3.90
2019-03-12T02:12:02.971Z,3.90
2019-03-12T02:14:50.821Z,4.00
2019-03-12T02:17:19.426Z,4.00
2019-03-12T02:19:47.858Z,4.00
2019-03-12T02:22:16.364Z,4.00
2019-03-12T02:24:52.603Z,4.00
2019-03-12T02:27:15.020Z,4.10
2019-03-12T02:29:43.469Z,4.10
2019-03-12T02:32:11.851Z,4.10
2019-03-12T02:34:40.469Z,4.20
2019-03-12T02:37:09.069Z,4.20
2019-03-12T02:39:37.547Z,4.20
2019-03-12T02:42:06.012Z,4.20
2019-03-12T02:44:34.397Z,4.30
2019-03-12T02:47:02.841Z,4.20
2019-03-12T02:49:31.223Z,4.30
2019-03-12T02:51:59.803Z,4.20
2019-03-12T02:54:28.211Z,4.20
2019-03-12T02:56:56.779Z,4.20
2019-03-12T02:59:25.253Z,4.20
2019-03-12T03:01:53.865Z,4.20
2019-03-12T03:04:22.518Z,4.20
2019-03-12T03:06:52.703Z,4.30
2019-03-12T03:09:20.553Z,4.30
2019-03-12T03:11:50.978Z,4.30
2019-03-12T03:14:33.511Z,4.30
2019-03-12T03:17:01.956Z,4.30
2019-03-12T03:19:30.481Z,4.30
2019-03-12T03:21:58.859Z,4.30
2019-03-12T03:24:27.340Z,4.30
2019-03-12T03:26:55.772Z,4.40
2019-03-12T03:29:24.197Z,4.40
2019-03-12T03:31:52.733Z,4.40
2019-03-12T03:34:27.206Z,4.50
2019-03-12T03:36:51.358Z,4.50
2019-03-12T03:39:19.777Z,4.40
2019-03-12T03:41:48.237Z,4.50
2019-03-12T03:44:16.755Z,4.60
2019-03-12T03:46:45.199Z,4.70
2019-03-12T03:49:13.754Z,4.60
2019-03-12T03:51:42.066Z,4.60
2019-03-12T03:54:10.446Z,4.60
2019-03-12T03:56:38.919Z,4.60
2019-03-12T03:59:07.314Z,4.60
2019-03-12T04:01:35.783Z,4.70
2019-03-12T04:04:04.250Z,4.70
2019-03-12T04:06:34.326Z,4.80
2019-03-12T04:09:02.860Z,4.80
2019-03-12T04:11:31.308Z,4.80
2019-03-12T04:13:59.856Z,4.80
2019-03-12T04:16:28.274Z,4.80
2019-03-12T04:18:56.787Z,4.80
2019-03-12T04:21:25.239Z,4.80
2019-03-12T04:23:53.726Z,4.80
2019-03-12T04:26:22.145Z,4.80
2019-03-12T04:28:50.543Z,4.80
2019-03-12T04:31:19.065Z,4.80
2019-03-12T04:34:02.759Z,4.80
2019-03-12T04:36:31.137Z,4.80
2019-03-12T04:38:59.540Z,4.80
2019-03-12T04:41:27.954Z,4.80
2019-03-12T04:43:56.449Z,4.80
2019-03-12T04:46:24.910Z,4.80
2019-03-12T04:48:53.341Z,4.80
2019-03-12T04:51:21.788Z,4.80
2019-03-12T04:53:52.390Z,4.80
2019-03-12T04:56:20.879Z,4.80
2019-03-12T04:58:49.274Z,4.80
2019-03-12T05:01:17.883Z,4.80
2019-03-12T05:03:46.504Z,4.80
2019-03-12T05:06:14.934Z,4.80
2019-03-12T05:08:43.408Z,4.80
2019-03-12T05:11:11.835Z,4.80
2019-03-12T05:13:40.385Z,4.70
2019-03-12T05:16:08.790Z,4.80
2019-03-12T05:18:37.273Z,4.80
2019-03-12T05:21:06.438Z,4.80
2019-03-12T05:23:34.869Z,4.90
2019-03-12T05:26:03.431Z,4.80
2019-03-12T05:28:31.784Z,4.80
2019-03-12T05:31:00.209Z,4.70
2019-03-12T05:33:28.738Z,4.70
2019-03-12T05:35:57.114Z,4.70
2019-03-12T05:38:25.505Z,4.60
2019-03-12T05:40:53.971Z,4.60
2019-03-12T05:43:22.336Z,4.70
2019-03-12T05:45:50.814Z,4.70
2019-03-12T05:48:19.211Z,4.60
2019-03-12T05:50:47.804Z,4.70
2019-03-12T05:53:16.283Z,4.70
2019-03-12T05:55:44.768Z,4.60
2019-03-12T05:58:13.217Z,4.70
2019-03-12T06:00:41.703Z,4.70
2019-03-12T06:03:10.041Z,4.60
2019-03-12T06:05:38.622Z,4.70
2019-03-12T06:08:07.242Z,4.60
2019-03-12T06:10:35.764Z,4.60
2019-03-12T06:13:04.173Z,4.60
2019-03-12T06:15:32.567Z,4.60
2019-03-12T06:18:00.987Z,4.70
2019-03-12T06:20:29.545Z,4.70
2019-03-12T06:22:57.911Z,4.70
2019-03-12T06:25:26.464Z,4.70
2019-03-12T06:27:55.022Z,4.80
2019-03-12T06:30:25.873Z,4.80
2019-03-12T06:32:55.155Z,4.80
2019-03-12T06:35:31.149Z,4.80
2019-03-12T06:38:07.047Z,4.80
2019-03-12T06:40:37.236Z,4.80
2019-03-12T06:43:15.734Z,4.80
2019-03-12T06:46:02.108Z,4.80
2019-03-12T06:48:41.715Z,4.80
2019-03-12T06:51:11.859Z,4.80
2019-03-12T06:53:56.596Z,4.80
2019-03-12T06:56:38.424Z,4.90
2019-03-12T06:59:11.269Z,4.90
2019-03-12T07:01:59.657Z,4.90
2019-03-12T07:04:35.388Z,4.90
2019-03-12T07:07:20.547Z,5.00
2019-03-12T07:09:50.543Z,5.10
2019-03-12T07:12:20.765Z,5.10
2019-03-12T07:14:59.181Z,5.00
2019-03-12T07:17:45.826Z,5.00
2019-03-12T07:20:32.428Z,5.00
2019-03-12T07:23:18.821Z,5.00
2019-03-12T07:25:50.907Z,5.00
2019-03-12T07:28:23.449Z,5.00
2019-03-12T07:31:05.567Z,5.00
2019-03-12T07:33:53.838Z,5.10
2019-03-12T07:36:26.823Z,5.20
2019-03-12T07:38:59.699Z,5.30
2019-03-12T07:41:35.700Z,5.30
2019-03-12T07:44:08.504Z,5.50
2019-03-12T07:46:47.274Z,5.50
2019-03-12T07:49:38.878Z,5.40
2019-03-12T07:52:09.008Z,5.50
2019-03-12T07:54:40.823Z,5.50
2019-03-12T07:57:11.046Z,5.50
2019-03-12T07:59:45.711Z,5.60
2019-03-12T08:02:31.822Z,5.70
2019-03-12T08:05:07.851Z,5.60
2019-03-12T08:07:53.905Z,5.60
2019-03-12T08:10:26.952Z,5.60
2019-03-12T08:13:00.229Z,5.70
2019-03-12T08:15:50.422Z,5.80
2019-03-12T08:18:36.471Z,5.90
2019-03-12T08:21:22.743Z,5.80
2019-03-12T08:24:02.157Z,5.90
2019-03-12T08:26:45.710Z,5.90
2019-03-12T08:29:18.729Z,6.00
2019-03-12T08:32:01.110Z,6.00
2019-03-12T08:34:33.890Z,6.10
2019-03-12T08:37:15.913Z,6.20
2019-03-12T08:39:48.851Z,6.10
2019-03-12T08:42:35.101Z,6.20
2019-03-12T08:45:11.098Z,6.30
2019-03-12T08:47:40.846Z,6.30
2019-03-12T08:50:26.745Z,6.20
2019-03-12T08:53:11.964Z,6.30
2019-03-12T08:55:41.947Z,6.30
2019-03-12T08:58:12.027Z,6.30
2019-03-12T09:00:42.110Z,6.30
2019-03-12T09:03:15.067Z,6.40
2019-03-12T09:05:47.502Z,6.40
2019-03-12T09:08:17.567Z,6.40
2019-03-12T09:11:03.851Z,6.40
2019-03-12T09:13:36.823Z,6.40
2019-03-12T09:16:16.070Z,6.30
2019-03-12T09:18:46.136Z,6.30
2019-03-12T09:21:16.125Z,6.30
2019-03-12T09:24:04.652Z,6.30
2019-03-12T09:26:52.708Z,6.30
2019-03-12T09:29:25.423Z,6.30
2019-03-12T09:31:55.497Z,6.30
2019-03-12T09:34:28.262Z,6.20
2019-03-12T09:37:07.378Z,6.20
2019-03-12T09:39:37.387Z,6.10
2019-03-12T09:42:23.763Z,6.20
2019-03-12T09:45:12.192Z,6.30
2019-03-12T09:47:45.818Z,6.40
2019-03-12T09:52:54.798Z,6.50
2019-03-12T09:55:27.626Z,6.60
2019-03-12T09:58:00.445Z,6.70
2019-03-12T10:00:46.946Z,6.80
2019-03-12T10:03:29.154Z,6.90
2019-03-12T10:05:59.244Z,7.00
2019-03-12T10:08:44.536Z,7.10
2019-03-12T10:11:20.567Z,7.20
2019-03-12T10:13:53.631Z,7.20
2019-03-12T10:16:23.741Z,7.30
2019-03-12T10:18:53.784Z,7.40
2019-03-12T10:21:26.574Z,7.60
2019-03-12T10:24:18.877Z,7.70
2019-03-12T10:26:48.931Z,7.80
2019-03-12T10:29:35.434Z,7.90
2019-03-12T10:32:05.784Z,8.00
2019-03-12T10:34:35.085Z,8.10
2019-03-12T10:37:12.319Z,8.10
2019-03-12T10:40:00.392Z,8.20
2019-03-12T10:42:33.436Z,8.20
2019-03-12T10:45:06.036Z,8.20
2019-03-12T10:47:36.180Z,8.30
2019-03-12T10:50:08.352Z,8.50
2019-03-12T10:52:42.401Z,8.60
2019-03-12T10:55:13.328Z,8.80
2019-03-12T10:57:40.898Z,8.70
2019-03-12T11:00:12.585Z,8.80
2019-03-12T11:02:41.108Z,8.60
2019-03-12T11:05:09.474Z,8.50
2019-03-12T11:07:37.959Z,8.60
2019-03-12T11:10:12.221Z,8.70
2019-03-12T11:12:41.198Z,8.90
2019-03-12T11:15:11.062Z,8.90
2019-03-12T11:17:48.858Z,9.00
2019-03-12T11:20:18.823Z,9.00
2019-03-12T11:22:47.358Z,9.10
2019-03-12T11:25:26.363Z,9.20
2019-03-12T11:27:45.904Z,9.30
2019-03-12T11:30:19.221Z,9.50
2019-03-12T11:32:47.764Z,9.50
2019-03-12T11:35:16.312Z,9.60
2019-03-12T11:37:44.721Z,9.60
2019-03-12T11:40:21.127Z,9.60
2019-03-12T11:42:49.733Z,9.60
2019-03-12T11:45:19.988Z,9.60
2019-03-12T11:47:48.465Z,9.60
2019-03-12T11:50:19.862Z,9.70
2019-03-12T11:52:54.629Z,9.80
2019-03-12T11:55:18.859Z,9.90
2019-03-12T11:57:47.297Z,9.90
2019-03-12T12:00:31.300Z,9.90
2019-03-12T12:03:00.769Z,10.00
2019-03-12T12:05:29.350Z,10.00
2019-03-12T12:07:58.148Z,10.10
2019-03-12T12:10:26.885Z,10.20
2019-03-12T12:12:55.237Z,10.30
2019-03-12T12:15:23.633Z,10.40
2019-03-12T12:17:52.134Z,10.50
2019-03-12T12:20:29.774Z,10.50
2019-03-12T12:22:50.702Z,10.40
2019-03-12T12:25:19.979Z,10.40
2019-03-12T12:27:48.386Z,10.50
2019-03-12T12:30:20.651Z,10.50
2019-03-12T12:32:49.213Z,10.60
2019-03-12T12:35:17.713Z,10.50
2019-03-12T12:37:46.297Z,10.30
2019-03-12T12:40:20.855Z,10.20
2019-03-12T12:42:49.299Z,10.00
2019-03-12T12:45:33.304Z,10.00
2019-03-12T12:48:01.717Z,10.00
2019-03-12T12:50:30.194Z,10.20
2019-03-12T12:52:58.631Z,10.40
2019-03-12T12:55:27.147Z,10.60
2019-03-12T12:57:55.737Z,10.70
2019-03-12T13:00:26.276Z,10.90
2019-03-12T13:02:54.689Z,10.90
2019-03-12T13:05:25.533Z,10.80
2019-03-12T13:07:53.949Z,11.00
2019-03-12T13:10:26.776Z,11.20
2019-03-12T13:12:55.324Z,11.30
2019-03-12T13:15:24.119Z,11.40
2019-03-12T13:17:52.757Z,11.50
2019-03-12T13:20:21.296Z,11.70
2019-03-12T13:22:49.804Z,11.80
2019-03-12T13:25:18.894Z,11.80
2019-03-12T13:27:47.291Z,11.90
2019-03-12T13:30:21.588Z,12.00
2019-03-12T13:32:50.201Z,12.30
2019-03-12T13:35:19.351Z,12.50
2019-03-12T13:37:48.567Z,12.50
2019-03-12T13:40:22.378Z,12.60
2019-03-12T13:42:51.116Z,12.40
2019-03-12T13:45:26.812Z,12.20
2019-03-12T13:47:55.396Z,12.10
2019-03-12T13:50:23.790Z,11.90
2019-03-12T13:52:52.555Z,11.70
2019-03-12T13:55:20.917Z,11.60
2019-03-12T13:57:49.374Z,11.70
2019-03-12T14:00:22.195Z,11.80
2019-03-12T14:02:50.871Z,12.00
2019-03-12T14:05:19.311Z,12.40
2019-03-12T14:07:47.907Z,12.70
2019-03-12T14:10:29.939Z,13.00
2019-03-12T14:12:58.538Z,13.30
2019-03-12T14:15:31.685Z,13.10
2019-03-12T14:18:00.539Z,12.90
2019-03-12T14:20:46.280Z,12.80
2019-03-12T14:23:20.441Z,12.70
2019-03-12T14:25:49.148Z,12.50
2019-03-12T14:28:17.665Z,12.50
2019-03-12T14:30:46.066Z,12.40
2019-03-12T14:33:14.556Z,12.50
2019-03-12T14:35:51.328Z,12.50
2019-03-12T14:38:13.155Z,12.60
2019-03-12T14:40:41.776Z,12.60
2019-03-12T14:43:10.327Z,12.50
2019-03-12T14:45:40.164Z,12.30
2019-03-12T14:48:28.173Z,12.10
2019-03-12T14:50:56.528Z,11.80
2019-03-12T14:53:24.932Z,11.80
2019-03-12T14:55:53.323Z,11.80
2019-03-12T14:58:21.799Z,11.80
2019-03-12T15:00:50.186Z,11.80
2019-03-12T15:03:18.688Z,11.70
2019-03-12T15:05:47.187Z,11.70
2019-03-12T15:08:15.773Z,11.70
2019-03-12T15:10:44.099Z,11.70
2019-03-12T15:13:12.545Z,11.70
2019-03-12T15:15:41.010Z,11.60
2019-03-12T15:18:09.518Z,11.60
2019-03-12T15:20:37.945Z,11.50
2019-03-12T15:23:06.435Z,11.50
2019-03-12T15:25:34.940Z,11.50
2019-03-12T15:28:03.254Z,11.40
2019-03-12T15:30:31.723Z,11.40
2019-03-12T15:33:00.288Z,11.50
2019-03-12T15:35:28.721Z,11.40
2019-03-12T15:37:57.224Z,11.20
2019-03-12T15:40:25.629Z,11.10
2019-03-12T15:42:54.138Z,11.00
2019-03-12T15:45:22.565Z,10.90
2019-03-12T15:47:51.040Z,10.90
2019-03-12T15:50:19.458Z,10.80
2019-03-12T15:52:50.810Z,10.70
2019-03-12T15:55:19.625Z,10.60
2019-03-12T15:57:48.239Z,10.50
2019-03-12T16:00:17.913Z,10.40
2019-03-12T16:02:46.303Z,10.40
2019-03-12T16:05:14.810Z,10.40
2019-03-12T16:07:43.170Z,10.30
2019-03-12T16:10:19.502Z,10.30
2019-03-12T16:12:47.136Z,10.30
2019-03-12T16:15:16.788Z,10.20
2019-03-12T16:17:45.307Z,10.20
2019-03-12T16:20:21.764Z,10.10
2019-03-12T16:22:50.145Z,10.10
2019-03-12T16:25:18.532Z,10.10
2019-03-12T16:27:46.874Z,10.00
2019-03-12T16:30:17.030Z,10.00
2019-03-12T16:32:45.472Z,10.00
2019-03-12T16:35:13.831Z,10.00
2019-03-12T16:37:42.366Z,10.00
2019-03-12T16:40:17.640Z,10.00
2019-03-12T16:42:45.983Z,9.90
2019-03-12T16:45:15.903Z,9.90
2019-03-12T16:47:44.280Z,9.80
2019-03-12T16:50:14.296Z,9.80
2019-03-12T16:52:42.674Z,9.80
2019-03-12T16:55:32.152Z,9.70
2019-03-12T16:58:00.635Z,9.70
2019-03-12T17:00:29.197Z,9.60
2019-03-12T17:02:57.729Z,9.60
2019-03-12T17:05:26.611Z,9.50
2019-03-12T17:07:55.105Z,9.50
2019-03-12T17:10:23.592Z,9.50
2019-03-12T17:12:51.960Z,9.50
2019-03-12T17:15:22.303Z,9.40
2019-03-12T17:17:50.027Z,9.40
2019-03-12T17:20:18.445Z,9.40
2019-03-12T17:22:46.849Z,9.30
2019-03-12T17:25:15.234Z,9.30
2019-03-12T17:27:43.634Z,9.20
2019-03-12T17:30:20.423Z,9.20
2019-03-12T17:32:48.788Z,9.20
2019-03-12T17:35:29.330Z,9.20
2019-03-12T17:37:57.825Z,9.20
2019-03-12T17:40:26.215Z,9.20
2019-03-12T17:42:54.911Z,9.10
2019-03-12T17:45:23.297Z,9.10
2019-03-12T17:47:51.772Z,9.10
2019-03-12T17:50:20.271Z,9.10
2019-03-12T17:52:48.660Z,9.10
2019-03-12T17:55:17.043Z,9.10
2019-03-12T17:57:50.894Z,9.10
2019-03-12T18:00:29.437Z,9.10
2019-03-12T18:02:57.833Z,9.10
2019-03-12T18:05:26.242Z,9.10
2019-03-12T18:07:54.640Z,9.10
2019-03-12T18:10:23.173Z,9.10
2019-03-12T18:12:51.523Z,9.10
2019-03-12T18:15:20.874Z,9.00
2019-03-12T18:17:49.259Z,9.00
2019-03-12T18:20:21.462Z,9.00
2019-03-12T18:22:49.828Z,9.00
2019-03-12T18:25:24.432Z,9.00
2019-03-12T18:27:52.816Z,8.90
2019-03-12T18:30:21.291Z,8.90
2019-03-12T18:32:49.619Z,8.90
2019-03-12T18:35:18.126Z,8.90
2019-03-12T18:37:46.581Z,8.90
2019-03-12T18:40:20.833Z,8.90
2019-03-12T18:42:49.249Z,8.80
2019-03-12T18:45:20.597Z,8.80
2019-03-12T18:47:48.956Z,8.80
2019-03-12T18:50:18.211Z,8.80
2019-03-12T18:52:46.595Z,8.70
2019-03-12T18:55:27.412Z,8.70
2019-03-12T18:57:55.790Z,8.70
2019-03-12T19:00:24.297Z,8.60
2019-03-12T19:02:52.674Z,8.60
2019-03-12T19:05:21.191Z,8.60
2019-03-12T19:07:49.632Z,8.60
2019-03-12T19:10:18.067Z,8.60
2019-03-12T19:12:46.608Z,8.60
2019-03-12T19:15:17.075Z,8.60
2019-03-12T19:17:45.120Z,8.60
2019-03-12T19:20:15.004Z,8.60
2019-03-12T19:22:43.514Z,8.60
2019-03-12T19:25:22.380Z,8.50
2019-03-12T19:27:59.661Z,8.50
2019-03-12T19:30:20.576Z,8.50
2019-03-12T19:33:07.456Z,8.50
2019-03-12T19:35:35.933Z,8.50
2019-03-12T19:38:04.379Z,8.50
2019-03-12T19:40:41.518Z,8.50
2019-03-12T19:43:09.976Z,8.50
2019-03-12T19:45:38.444Z,8.50
2019-03-12T19:48:07.039Z,8.50
2019-03-12T19:50:35.815Z,8.50
2019-03-12T19:53:04.439Z,8.50
2019-03-12T19:55:44.925Z,8.50
2019-03-12T19:58:13.420Z,8.50
2019-03-12T20:00:41.981Z,8.50
2019-03-12T20:03:14.771Z,8.50
2019-03-12T20:05:40.053Z,8.50
2019-03-12T20:08:08.426Z,8.50
2019-03-12T20:11:07.758Z,8.50
2019-03-12T20:13:56.463Z,8.40
2019-03-12T20:16:50.690Z,8.40
2019-03-12T20:19:31.427Z,8.30
2019-03-12T20:22:32.339Z,8.30
2019-03-12T20:25:12.894Z,8.20
2019-03-12T20:28:13.007Z,8.20
2019-03-12T20:31:04.200Z,8.20
2019-03-12T20:33:38.638Z,8.20
2019-03-12T20:36:31.039Z,8.20
2019-03-12T20:39:36.578Z,8.20
2019-03-12T20:42:31.284Z,8.20
2019-03-12T20:45:36.630Z,8.10
2019-03-12T20:48:24.949Z,8.10
2019-03-12T20:51:16.369Z,8.10
2019-03-12T20:54:04.664Z,8.10
2019-03-12T20:56:54.411Z,8.10
2019-03-12T20:59:46.049Z,8.10
2019-03-12T21:02:29.571Z,8.10
2019-03-12T21:05:03.985Z,8.00
2019-03-12T21:08:10.558Z,8.00
2019-03-12T21:11:11.236Z,8.00
2019-03-12T21:14:08.691Z,8.00
2019-03-12T21:17:13.933Z,8.00
2019-03-12T21:20:08.280Z,7.90
2019-03-12T21:22:47.285Z,7.90
2019-03-12T21:25:35.716Z,7.90
2019-03-12T21:28:13.190Z,8.00
2019-03-12T21:30:41.534Z,8.00
2019-03-12T21:33:15.356Z,8.00
2019-03-12T21:35:40.013Z,8.00
2019-03-12T21:38:08.734Z,8.00
2019-03-12T21:40:37.179Z,8.00
2019-03-12T21:43:05.583Z,8.10
2019-03-12T21:45:34.195Z,8.10
2019-03-12T21:48:02.582Z,8.20
2019-03-12T21:50:31.072Z,8.20
2019-03-12T21:52:59.512Z,8.20
2019-03-12T21:55:30.041Z,8.20
2019-03-12T21:57:58.506Z,8.20
2019-03-12T22:00:26.855Z,8.20
2019-03-12T22:02:55.222Z,8.20
2019-03-12T22:05:23.755Z,8.20
2019-03-12T22:07:52.625Z,8.30
2019-03-12T22:10:21.124Z,8.20
2019-03-12T22:12:49.658Z,8.20
2019-03-12T22:15:18.047Z,8.20
2019-03-12T22:17:46.438Z,8.20
2019-03-12T22:20:15.373Z,8.30
2019-03-12T22:22:48.100Z,8.30
2019-03-12T22:25:16.678Z,8.30
2019-03-12T22:27:45.146Z,8.30
2019-03-12T22:30:16.797Z,8.30
2019-03-12T22:32:45.302Z,8.40
2019-03-12T22:35:13.661Z,8.30
2019-03-12T22:37:42.208Z,8.30
2019-03-12T22:40:12.838Z,8.40
2019-03-12T22:42:41.273Z,8.30
2019-03-12T22:45:11.119Z,8.30
2019-03-12T22:47:39.649Z,8.40
2019-03-12T22:50:13.239Z,8.40
2019-03-12T22:52:41.793Z,8.40
2019-03-12T22:55:11.682Z,8.40
2019-03-12T22:57:40.092Z,8.40
2019-03-12T23:00:16.414Z,8.40
2019-03-12T23:02:47.232Z,8.40
2019-03-12T23:05:15.825Z,8.40
2019-03-12T23:07:44.360Z,8.40
2019-03-12T23:10:14.708Z,8.40
2019-03-12T23:12:42.882Z,8.40
2019-03-12T23:15:16.598Z,8.50
2019-03-12T23:17:45.185Z,8.40
2019-03-12T23:20:19.865Z,8.40
2019-03-12T23:22:51.607Z,8.40
2019-03-12T23:25:18.389Z,8.50
2019-03-12T23:27:46.851Z,8.50
2019-03-12T23:30:20.428Z,8.50
2019-03-12T23:32:49.189Z,8.50
2019-03-12T23:35:17.859Z,8.50
2019-03-12T23:37:47.489Z,8.50
2019-03-12T23:40:17.997Z,8.60
2019-03-12T23:42:46.627Z,8.60
2019-03-12T23:45:17.009Z,8.60
2019-03-12T23:47:45.533Z,8.70
2019-03-12T23:50:17.555Z,8.80
2019-03-12T23:52:46.181Z,8.90
2019-03-12T23:55:17.198Z,8.90
2019-03-12T23:57:45.970Z,9.00
